sensor_id;sensor_type;location;lat;lon;timestamp;P1;durP1;ratioP1;P2;durP2;ratioP2
66721;SDS011;53633;49.932;10.884;2023-10-13T00:00:04;13.77;;;7.45;;
66721;SDS011;53633;49.932;10.884;2023-10-13T00:02:31;18.40;;;8.30;;
66721;SDS011;53633;49.932;10.884;2023-10-13T00:04:58;20.42;;;8.32;;
66721;SDS011;53633;49.932;10.884;2023-10-13T00:07:25;18.50;;;7.93;;
66721;SDS011;53633;49.932;10.884;2023-10-13T00:09:52;18.52;;;8.55;;
66721;SDS011;53633;49.932;10.884;2023-10-13T00:12:19;16.63;;;8.25;;
66721;SDS011;53633;49.932;10.884;2023-10-13T00:14:45;14.70;;;8.13;;
66721;SDS011;53633;49.932;10.884;2023-10-13T00:17:14;15.57;;;8.32;;
66721;SDS011;53633;49.932;10.884;2023-10-13T00:19:40;22.17;;;8.43;;
66721;SDS011;53633;49.932;10.884;2023-10-13T00:22:08;17.63;;;7.75;;
66721;SDS011;53633;49.932;10.884;2023-10-13T00:24:35;18.48;;;8.00;;
66721;SDS011;53633;49.932;10.884;2023-10-13T00:27:02;18.37;;;7.97;;
66721;SDS011;53633;49.932;10.884;2023-10-13T00:29:28;18.38;;;8.32;;
66721;SDS011;53633;49.932;10.884;2023-10-13T00:31:55;19.55;;;8.25;;
66721;SDS011;53633;49.932;10.884;2023-10-13T00:34:24;17.98;;;8.65;;
66721;SDS011;53633;49.932;10.884;2023-10-13T00:36:50;18.42;;;7.40;;
66721;SDS011;53633;49.932;10.884;2023-10-13T00:39:17;17.80;;;7.67;;
66721;SDS011;53633;49.932;10.884;2023-10-13T00:41:45;15.38;;;8.10;;
66721;SDS011;53633;49.932;10.884;2023-10-13T00:44:11;19.25;;;8.50;;
66721;SDS011;53633;49.932;10.884;2023-10-13T00:46:38;17.70;;;8.50;;
66721;SDS011;53633;49.932;10.884;2023-10-13T00:49:05;20.70;;;8.10;;
66721;SDS011;53633;49.932;10.884;2023-10-13T00:51:34;16.50;;;7.17;;
66721;SDS011;53633;49.932;10.884;2023-10-13T00:54:02;17.70;;;8.05;;
66721;SDS011;53633;49.932;10.884;2023-10-13T00:56:30;16.50;;;8.10;;
66721;SDS011;53633;49.932;10.884;2023-10-13T00:58:57;17.73;;;7.68;;
66721;SDS011;53633;49.932;10.884;2023-10-13T01:01:26;17.52;;;7.72;;
66721;SDS011;53633;49.932;10.884;2023-10-13T01:03:53;18.47;;;7.20;;
66721;SDS011;53633;49.932;10.884;2023-10-13T01:06:20;17.02;;;7.25;;
66721;SDS011;53633;49.932;10.884;2023-10-13T01:08:48;18.95;;;7.43;;
66721;SDS011;53633;49.932;10.884;2023-10-13T01:11:15;15.93;;;7.35;;
66721;SDS011;53633;49.932;10.884;2023-10-13T01:13:43;15.70;;;7.43;;
66721;SDS011;53633;49.932;10.884;2023-10-13T01:16:10;14.90;;;6.50;;
66721;SDS011;53633;49.932;10.884;2023-10-13T01:18:40;13.68;;;7.20;;
66721;SDS011;53633;49.932;10.884;2023-10-13T01:21:07;15.60;;;7.35;;
66721;SDS011;53633;49.932;10.884;2023-10-13T01:23:35;19.13;;;7.65;;
66721;SDS011;53633;49.932;10.884;2023-10-13T01:26:01;16.52;;;7.78;;
66721;SDS011;53633;49.932;10.884;2023-10-13T01:28:28;19.63;;;6.90;;
66721;SDS011;53633;49.932;10.884;2023-10-13T01:30:55;17.67;;;8.20;;
66721;SDS011;53633;49.932;10.884;2023-10-13T01:33:21;18.55;;;7.50;;
66721;SDS011;53633;49.932;10.884;2023-10-13T01:35:48;15.25;;;7.07;;
66721;SDS011;53633;49.932;10.884;2023-10-13T01:38:15;14.45;;;7.13;;
66721;SDS011;53633;49.932;10.884;2023-10-13T01:40:43;16.53;;;7.73;;
66721;SDS011;53633;49.932;10.884;2023-10-13T01:43:10;15.88;;;7.43;;
66721;SDS011;53633;49.932;10.884;2023-10-13T01:45:37;16.80;;;8.13;;
66721;SDS011;53633;49.932;10.884;2023-10-13T01:48:04;16.63;;;7.57;;
66721;SDS011;53633;49.932;10.884;2023-10-13T01:50:31;17.08;;;7.97;;
66721;SDS011;53633;49.932;10.884;2023-10-13T01:52:57;19.57;;;8.23;;
66721;SDS011;53633;49.932;10.884;2023-10-13T01:55:24;19.92;;;8.25;;
66721;SDS011;53633;49.932;10.884;2023-10-13T01:57:52;17.00;;;8.55;;
66721;SDS011;53633;49.932;10.884;2023-10-13T02:00:19;17.10;;;8.10;;
66721;SDS011;53633;49.932;10.884;2023-10-13T02:02:45;17.80;;;8.45;;
66721;SDS011;53633;49.932;10.884;2023-10-13T02:05:12;17.73;;;7.80;;
66721;SDS011;53633;49.932;10.884;2023-10-13T02:07:39;21.95;;;8.45;;
66721;SDS011;53633;49.932;10.884;2023-10-13T02:10:06;19.40;;;8.15;;
66721;SDS011;53633;49.932;10.884;2023-10-13T02:12:34;16.92;;;8.18;;
66721;SDS011;53633;49.932;10.884;2023-10-13T02:15:02;18.52;;;9.00;;
66721;SDS011;53633;49.932;10.884;2023-10-13T02:17:29;22.97;;;8.80;;
66721;SDS011;53633;49.932;10.884;2023-10-13T02:19:56;14.55;;;7.97;;
66721;SDS011;53633;49.932;10.884;2023-10-13T02:22:22;20.33;;;8.73;;
66721;SDS011;53633;49.932;10.884;2023-10-13T02:24:49;15.38;;;8.00;;
66721;SDS011;53633;49.932;10.884;2023-10-13T02:27:15;16.25;;;7.55;;
66721;SDS011;53633;49.932;10.884;2023-10-13T02:29:42;16.43;;;7.60;;
66721;SDS011;53633;49.932;10.884;2023-10-13T02:32:10;15.23;;;7.47;;
66721;SDS011;53633;49.932;10.884;2023-10-13T02:34:37;16.95;;;7.50;;
66721;SDS011;53633;49.932;10.884;2023-10-13T02:37:04;20.95;;;7.30;;
66721;SDS011;53633;49.932;10.884;2023-10-13T02:39:31;16.30;;;7.40;;
66721;SDS011;53633;49.932;10.884;2023-10-13T02:41:57;19.47;;;7.90;;
66721;SDS011;53633;49.932;10.884;2023-10-13T02:44:24;14.43;;;7.10;;
66721;SDS011;53633;49.932;10.884;2023-10-13T02:46:50;18.15;;;7.93;;
66721;SDS011;53633;49.932;10.884;2023-10-13T02:49:19;17.17;;;7.53;;
66721;SDS011;53633;49.932;10.884;2023-10-13T02:51:46;19.80;;;7.65;;
66721;SDS011;53633;49.932;10.884;2023-10-13T02:54:12;18.83;;;7.40;;
66721;SDS011;53633;49.932;10.884;2023-10-13T02:56:39;15.43;;;7.25;;
66721;SDS011;53633;49.932;10.884;2023-10-13T02:59:06;20.45;;;7.20;;
66721;SDS011;53633;49.932;10.884;2023-10-13T03:01:33;16.92;;;6.82;;
66721;SDS011;53633;49.932;10.884;2023-10-13T03:04:00;19.60;;;7.72;;
66721;SDS011;53633;49.932;10.884;2023-10-13T03:06:29;18.13;;;7.53;;
66721;SDS011;53633;49.932;10.884;2023-10-13T03:08:55;16.98;;;7.53;;
66721;SDS011;53633;49.932;10.884;2023-10-13T03:11:22;16.23;;;7.28;;
66721;SDS011;53633;49.932;10.884;2023-10-13T03:13:49;16.08;;;7.32;;
66721;SDS011;53633;49.932;10.884;2023-10-13T03:16:16;15.52;;;7.35;;
66721;SDS011;53633;49.932;10.884;2023-10-13T03:18:43;17.70;;;7.30;;
66721;SDS011;53633;49.932;10.884;2023-10-13T03:21:10;15.63;;;7.22;;
66721;SDS011;53633;49.932;10.884;2023-10-13T03:23:38;15.68;;;7.05;;
66721;SDS011;53633;49.932;10.884;2023-10-13T03:26:08;16.83;;;7.28;;
66721;SDS011;53633;49.932;10.884;2023-10-13T03:28:35;16.92;;;7.15;;
66721;SDS011;53633;49.932;10.884;2023-10-13T03:31:02;19.73;;;6.67;;
66721;SDS011;53633;49.932;10.884;2023-10-13T03:33:29;14.15;;;6.82;;
66721;SDS011;53633;49.932;10.884;2023-10-13T03:35:55;14.18;;;6.82;;
66721;SDS011;53633;49.932;10.884;2023-10-13T03:38:22;17.42;;;7.38;;
66721;SDS011;53633;49.932;10.884;2023-10-13T03:40:50;18.05;;;6.45;;
66721;SDS011;53633;49.932;10.884;2023-10-13T03:43:17;17.50;;;7.07;;
66721;SDS011;53633;49.932;10.884;2023-10-13T03:45:44;14.63;;;7.25;;
66721;SDS011;53633;49.932;10.884;2023-10-13T03:48:12;16.05;;;7.28;;
66721;SDS011;53633;49.932;10.884;2023-10-13T03:50:40;17.60;;;7.32;;
66721;SDS011;53633;49.932;10.884;2023-10-13T03:53:07;17.23;;;7.25;;
66721;SDS011;53633;49.932;10.884;2023-10-13T03:55:33;17.63;;;7.00;;
66721;SDS011;53633;49.932;10.884;2023-10-13T03:58:01;15.35;;;6.97;;
66721;SDS011;53633;49.932;10.884;2023-10-13T04:00:28;14.02;;;6.63;;
66721;SDS011;53633;49.932;10.884;2023-10-13T04:02:55;18.10;;;7.78;;
66721;SDS011;53633;49.932;10.884;2023-10-13T04:05:22;15.88;;;6.88;;
66721;SDS011;53633;49.932;10.884;2023-10-13T04:07:48;16.43;;;7.40;;
66721;SDS011;53633;49.932;10.884;2023-10-13T04:10:15;16.98;;;7.43;;
66721;SDS011;53633;49.932;10.884;2023-10-13T04:12:42;18.38;;;7.40;;
66721;SDS011;53633;49.932;10.884;2023-10-13T04:15:10;19.38;;;7.00;;
66721;SDS011;53633;49.932;10.884;2023-10-13T04:17:37;19.10;;;7.80;;
66721;SDS011;53633;49.932;10.884;2023-10-13T04:20:04;16.83;;;8.67;;
66721;SDS011;53633;49.932;10.884;2023-10-13T04:22:31;17.23;;;8.50;;
66721;SDS011;53633;49.932;10.884;2023-10-13T04:24:58;22.70;;;8.25;;
66721;SDS011;53633;49.932;10.884;2023-10-13T04:27:24;16.10;;;8.35;;
66721;SDS011;53633;49.932;10.884;2023-10-13T04:29:51;18.73;;;8.38;;
66721;SDS011;53633;49.932;10.884;2023-10-13T04:32:19;19.63;;;7.83;;
66721;SDS011;53633;49.932;10.884;2023-10-13T04:34:45;17.80;;;8.02;;
66721;SDS011;53633;49.932;10.884;2023-10-13T04:37:12;19.33;;;8.55;;
66721;SDS011;53633;49.932;10.884;2023-10-13T04:39:39;16.60;;;7.80;;
66721;SDS011;53633;49.932;10.884;2023-10-13T04:42:06;19.55;;;8.40;;
66721;SDS011;53633;49.932;10.884;2023-10-13T04:44:32;18.20;;;7.20;;
66721;SDS011;53633;49.932;10.884;2023-10-13T04:46:59;20.02;;;8.70;;
66721;SDS011;53633;49.932;10.884;2023-10-13T04:49:29;19.02;;;8.68;;
66721;SDS011;53633;49.932;10.884;2023-10-13T04:51:58;19.83;;;7.43;;
66721;SDS011;53633;49.932;10.884;2023-10-13T04:54:25;17.45;;;8.05;;
66721;SDS011;53633;49.932;10.884;2023-10-13T04:56:52;17.03;;;8.20;;
66721;SDS011;53633;49.932;10.884;2023-10-13T04:59:19;18.33;;;7.18;;
66721;SDS011;53633;49.932;10.884;2023-10-13T05:01:46;16.40;;;8.43;;
66721;SDS011;53633;49.932;10.884;2023-10-13T05:04:13;19.38;;;7.70;;
66721;SDS011;53633;49.932;10.884;2023-10-13T05:06:41;18.27;;;8.00;;
66721;SDS011;53633;49.932;10.884;2023-10-13T05:09:08;19.57;;;7.67;;
66721;SDS011;53633;49.932;10.884;2023-10-13T05:11:34;15.85;;;7.70;;
66721;SDS011;53633;49.932;10.884;2023-10-13T05:14:01;20.75;;;8.52;;
66721;SDS011;53633;49.932;10.884;2023-10-13T05:16:28;17.60;;;7.43;;
66721;SDS011;53633;49.932;10.884;2023-10-13T05:18:54;18.85;;;7.78;;
66721;SDS011;53633;49.932;10.884;2023-10-13T05:21:21;19.77;;;7.33;;
66721;SDS011;53633;49.932;10.884;2023-10-13T05:23:50;17.60;;;8.00;;
66721;SDS011;53633;49.932;10.884;2023-10-13T05:26:16;16.13;;;7.78;;
66721;SDS011;53633;49.932;10.884;2023-10-13T05:28:43;17.77;;;8.55;;
66721;SDS011;53633;49.932;10.884;2023-10-13T05:31:10;17.55;;;7.63;;
66721;SDS011;53633;49.932;10.884;2023-10-13T05:33:36;16.17;;;7.37;;
66721;SDS011;53633;49.932;10.884;2023-10-13T05:36:08;20.70;;;8.23;;
66721;SDS011;53633;49.932;10.884;2023-10-13T05:38:36;21.08;;;8.80;;
66721;SDS011;53633;49.932;10.884;2023-10-13T05:41:04;15.70;;;7.60;;
66721;SDS011;53633;49.932;10.884;2023-10-13T05:43:32;17.77;;;7.72;;
66721;SDS011;53633;49.932;10.884;2023-10-13T05:46:01;16.73;;;8.07;;
66721;SDS011;53633;49.932;10.884;2023-10-13T05:48:31;13.80;;;6.93;;
66721;SDS011;53633;49.932;10.884;2023-10-13T05:50:59;17.23;;;7.63;;
66721;SDS011;53633;49.932;10.884;2023-10-13T05:53:26;18.98;;;7.75;;
66721;SDS011;53633;49.932;10.884;2023-10-13T05:55:53;17.50;;;7.97;;
66721;SDS011;53633;49.932;10.884;2023-10-13T05:58:27;18.50;;;7.67;;
66721;SDS011;53633;49.932;10.884;2023-10-13T06:00:54;15.23;;;7.95;;
66721;SDS011;53633;49.932;10.884;2023-10-13T06:03:21;18.90;;;7.60;;
66721;SDS011;53633;49.932;10.884;2023-10-13T06:05:48;16.63;;;7.55;;
66721;SDS011;53633;49.932;10.884;2023-10-13T06:08:15;15.60;;;7.22;;
66721;SDS011;53633;49.932;10.884;2023-10-13T06:10:42;17.30;;;8.00;;
66721;SDS011;53633;49.932;10.884;2023-10-13T06:13:09;18.80;;;7.65;;
66721;SDS011;53633;49.932;10.884;2023-10-13T06:15:37;18.98;;;9.10;;
66721;SDS011;53633;49.932;10.884;2023-10-13T06:18:04;15.25;;;8.23;;
66721;SDS011;53633;49.932;10.884;2023-10-13T06:20:31;21.60;;;8.48;;
66721;SDS011;53633;49.932;10.884;2023-10-13T06:22:57;18.10;;;7.83;;
66721;SDS011;53633;49.932;10.884;2023-10-13T06:25:24;18.88;;;8.25;;
66721;SDS011;53633;49.932;10.884;2023-10-13T06:27:51;15.30;;;7.50;;
66721;SDS011;53633;49.932;10.884;2023-10-13T06:30:17;16.30;;;7.75;;
66721;SDS011;53633;49.932;10.884;2023-10-13T06:32:45;13.73;;;7.20;;
66721;SDS011;53633;49.932;10.884;2023-10-13T06:35:12;17.13;;;7.60;;
66721;SDS011;53633;49.932;10.884;2023-10-13T06:37:39;17.50;;;7.75;;
66721;SDS011;53633;49.932;10.884;2023-10-13T06:40:08;17.35;;;7.95;;
66721;SDS011;53633;49.932;10.884;2023-10-13T06:42:36;17.08;;;7.30;;
66721;SDS011;53633;49.932;10.884;2023-10-13T06:45:03;18.02;;;8.30;;
66721;SDS011;53633;49.932;10.884;2023-10-13T06:47:30;14.13;;;7.10;;
66721;SDS011;53633;49.932;10.884;2023-10-13T06:49:58;14.75;;;6.47;;
66721;SDS011;53633;49.932;10.884;2023-10-13T06:52:25;14.98;;;7.82;;
66721;SDS011;53633;49.932;10.884;2023-10-13T06:54:52;14.93;;;7.82;;
66721;SDS011;53633;49.932;10.884;2023-10-13T06:57:19;17.33;;;7.18;;
66721;SDS011;53633;49.932;10.884;2023-10-13T06:59:46;11.63;;;6.33;;
66721;SDS011;53633;49.932;10.884;2023-10-13T07:02:13;13.98;;;7.10;;
66721;SDS011;53633;49.932;10.884;2023-10-13T07:04:53;15.68;;;6.85;;
66721;SDS011;53633;49.932;10.884;2023-10-13T07:07:22;16.30;;;6.93;;
66721;SDS011;53633;49.932;10.884;2023-10-13T07:09:48;14.68;;;6.50;;
66721;SDS011;53633;49.932;10.884;2023-10-13T07:12:15;12.87;;;6.30;;
66721;SDS011;53633;49.932;10.884;2023-10-13T07:14:45;15.02;;;6.25;;
66721;SDS011;53633;49.932;10.884;2023-10-13T07:17:12;14.48;;;6.43;;
66721;SDS011;53633;49.932;10.884;2023-10-13T07:19:39;16.90;;;7.32;;
66721;SDS011;53633;49.932;10.884;2023-10-13T07:22:06;18.17;;;6.82;;
66721;SDS011;53633;49.932;10.884;2023-10-13T07:24:34;16.53;;;6.87;;
66721;SDS011;53633;49.932;10.884;2023-10-13T07:27:02;14.35;;;6.53;;
66721;SDS011;53633;49.932;10.884;2023-10-13T07:29:29;16.90;;;6.80;;
66721;SDS011;53633;49.932;10.884;2023-10-13T07:31:56;14.82;;;6.88;;
66721;SDS011;53633;49.932;10.884;2023-10-13T07:34:23;16.30;;;6.72;;
66721;SDS011;53633;49.932;10.884;2023-10-13T07:36:51;12.70;;;6.50;;
66721;SDS011;53633;49.932;10.884;2023-10-13T07:39:18;13.35;;;6.13;;
66721;SDS011;53633;49.932;10.884;2023-10-13T07:41:51;13.50;;;6.25;;
66721;SDS011;53633;49.932;10.884;2023-10-13T07:44:18;13.50;;;6.68;;
66721;SDS011;53633;49.932;10.884;2023-10-13T07:46:45;15.00;;;6.70;;
66721;SDS011;53633;49.932;10.884;2023-10-13T07:49:12;16.10;;;6.30;;
66721;SDS011;53633;49.932;10.884;2023-10-13T07:51:38;14.23;;;6.25;;
66721;SDS011;53633;49.932;10.884;2023-10-13T07:54:05;14.23;;;6.18;;
66721;SDS011;53633;49.932;10.884;2023-10-13T07:56:32;13.45;;;6.05;;
66721;SDS011;53633;49.932;10.884;2023-10-13T07:59:00;13.65;;;5.82;;
66721;SDS011;53633;49.932;10.884;2023-10-13T08:01:30;15.23;;;6.00;;
66721;SDS011;53633;49.932;10.884;2023-10-13T08:03:57;14.23;;;6.00;;
66721;SDS011;53633;49.932;10.884;2023-10-13T08:06:24;18.65;;;6.82;;
66721;SDS011;53633;49.932;10.884;2023-10-13T08:08:50;15.88;;;5.72;;
66721;SDS011;53633;49.932;10.884;2023-10-13T08:11:17;11.95;;;5.03;;
66721;SDS011;53633;49.932;10.884;2023-10-13T08:13:44;12.57;;;5.73;;
66721;SDS011;53633;49.932;10.884;2023-10-13T08:16:29;14.82;;;5.85;;
66721;SDS011;53633;49.932;10.884;2023-10-13T08:18:56;15.77;;;6.38;;
66721;SDS011;53633;49.932;10.884;2023-10-13T08:21:23;11.80;;;5.75;;
66721;SDS011;53633;49.932;10.884;2023-10-13T08:23:50;17.00;;;6.15;;
66721;SDS011;53633;49.932;10.884;2023-10-13T08:26:17;14.13;;;6.17;;
66721;SDS011;53633;49.932;10.884;2023-10-13T08:28:44;12.73;;;5.13;;
66721;SDS011;53633;49.932;10.884;2023-10-13T08:31:14;15.80;;;6.63;;
66721;SDS011;53633;49.932;10.884;2023-10-13T08:33:42;11.80;;;5.32;;
66721;SDS011;53633;49.932;10.884;2023-10-13T08:36:09;12.88;;;5.50;;
66721;SDS011;53633;49.932;10.884;2023-10-13T08:38:35;12.13;;;5.80;;
66721;SDS011;53633;49.932;10.884;2023-10-13T08:41:02;11.38;;;5.00;;
66721;SDS011;53633;49.932;10.884;2023-10-13T08:43:30;17.95;;;5.72;;
66721;SDS011;53633;49.932;10.884;2023-10-13T08:45:58;15.50;;;5.30;;
66721;SDS011;53633;49.932;10.884;2023-10-13T08:48:26;12.80;;;5.50;;
66721;SDS011;53633;49.932;10.884;2023-10-13T08:50:54;13.07;;;4.57;;
66721;SDS011;53633;49.932;10.884;2023-10-13T08:53:21;10.98;;;4.82;;
66721;SDS011;53633;49.932;10.884;2023-10-13T08:55:48;13.82;;;5.18;;
66721;SDS011;53633;49.932;10.884;2023-10-13T08:58:15;9.57;;;5.32;;
66721;SDS011;53633;49.932;10.884;2023-10-13T09:00:42;10.98;;;4.85;;
66721;SDS011;53633;49.932;10.884;2023-10-13T09:03:11;8.97;;;4.60;;
66721;SDS011;53633;49.932;10.884;2023-10-13T09:05:38;10.48;;;5.10;;
66721;SDS011;53633;49.932;10.884;2023-10-13T09:08:08;11.65;;;5.15;;
66721;SDS011;53633;49.932;10.884;2023-10-13T09:10:35;12.93;;;5.00;;
66721;SDS011;53633;49.932;10.884;2023-10-13T09:13:02;10.50;;;4.75;;
66721;SDS011;53633;49.932;10.884;2023-10-13T09:15:29;12.93;;;4.87;;
66721;SDS011;53633;49.932;10.884;2023-10-13T09:17:57;10.90;;;4.82;;
66721;SDS011;53633;49.932;10.884;2023-10-13T09:20:30;9.93;;;4.90;;
66721;SDS011;53633;49.932;10.884;2023-10-13T09:22:57;10.07;;;5.35;;
66721;SDS011;53633;49.932;10.884;2023-10-13T09:25:26;13.75;;;4.95;;
66721;SDS011;53633;49.932;10.884;2023-10-13T09:27:53;14.63;;;4.87;;
66721;SDS011;53633;49.932;10.884;2023-10-13T09:30:20;9.57;;;4.55;;
66721;SDS011;53633;49.932;10.884;2023-10-13T09:32:46;8.10;;;4.32;;
66721;SDS011;53633;49.932;10.884;2023-10-13T09:35:16;8.75;;;4.25;;
66721;SDS011;53633;49.932;10.884;2023-10-13T09:37:43;10.98;;;4.80;;
66721;SDS011;53633;49.932;10.884;2023-10-13T09:40:11;8.60;;;4.20;;
66721;SDS011;53633;49.932;10.884;2023-10-13T09:42:42;8.55;;;4.07;;
66721;SDS011;53633;49.932;10.884;2023-10-13T09:45:09;8.85;;;4.38;;
66721;SDS011;53633;49.932;10.884;2023-10-13T09:47:36;12.35;;;4.65;;
66721;SDS011;53633;49.932;10.884;2023-10-13T09:50:04;9.45;;;4.43;;
66721;SDS011;53633;49.932;10.884;2023-10-13T09:52:35;11.03;;;4.80;;
66721;SDS011;53633;49.932;10.884;2023-10-13T09:55:09;12.45;;;4.60;;
66721;SDS011;53633;49.932;10.884;2023-10-13T09:57:45;10.18;;;4.40;;
66721;SDS011;53633;49.932;10.884;2023-10-13T10:00:18;10.30;;;4.55;;
66721;SDS011;53633;49.932;10.884;2023-10-13T10:02:46;10.45;;;4.05;;
66721;SDS011;53633;49.932;10.884;2023-10-13T10:05:13;10.90;;;4.53;;
66721;SDS011;53633;49.932;10.884;2023-10-13T10:07:54;9.90;;;4.15;;
66721;SDS011;53633;49.932;10.884;2023-10-13T10:10:22;13.77;;;4.80;;
66721;SDS011;53633;49.932;10.884;2023-10-13T10:12:55;10.48;;;4.35;;
66721;SDS011;53633;49.932;10.884;2023-10-13T10:15:26;14.60;;;4.57;;
66721;SDS011;53633;49.932;10.884;2023-10-13T10:17:55;11.53;;;4.00;;
66721;SDS011;53633;49.932;10.884;2023-10-13T10:20:27;10.20;;;4.10;;
66721;SDS011;53633;49.932;10.884;2023-10-13T10:22:55;12.32;;;4.47;;
66721;SDS011;53633;49.932;10.884;2023-10-13T10:25:28;12.80;;;5.25;;
66721;SDS011;53633;49.932;10.884;2023-10-13T10:27:57;10.90;;;4.40;;
66721;SDS011;53633;49.932;10.884;2023-10-13T10:30:24;9.43;;;4.23;;
66721;SDS011;53633;49.932;10.884;2023-10-13T10:32:54;14.60;;;4.50;;
66721;SDS011;53633;49.932;10.884;2023-10-13T10:35:23;11.68;;;4.35;;
66721;SDS011;53633;49.932;10.884;2023-10-13T10:37:49;11.63;;;4.25;;
66721;SDS011;53633;49.932;10.884;2023-10-13T10:40:17;10.10;;;3.75;;
66721;SDS011;53633;49.932;10.884;2023-10-13T10:42:44;12.13;;;4.77;;
66721;SDS011;53633;49.932;10.884;2023-10-13T10:45:17;10.98;;;4.28;;
66721;SDS011;53633;49.932;10.884;2023-10-13T10:47:47;9.93;;;4.22;;
66721;SDS011;53633;49.932;10.884;2023-10-13T10:50:24;11.40;;;4.82;;
66721;SDS011;53633;49.932;10.884;2023-10-13T10:52:52;8.48;;;4.05;;
66721;SDS011;53633;49.932;10.884;2023-10-13T10:55:19;9.20;;;3.67;;
66721;SDS011;53633;49.932;10.884;2023-10-13T10:57:46;12.10;;;4.15;;
66721;SDS011;53633;49.932;10.884;2023-10-13T11:00:20;10.18;;;4.05;;
66721;SDS011;53633;49.932;10.884;2023-10-13T11:02:53;10.48;;;4.60;;
66721;SDS011;53633;49.932;10.884;2023-10-13T11:05:20;8.25;;;4.07;;
66721;SDS011;53633;49.932;10.884;2023-10-13T11:07:47;9.47;;;3.60;;
66721;SDS011;53633;49.932;10.884;2023-10-13T11:10:13;11.32;;;4.38;;
66721;SDS011;53633;49.932;10.884;2023-10-13T11:12:52;9.35;;;3.95;;
66721;SDS011;53633;49.932;10.884;2023-10-13T11:15:21;9.95;;;3.72;;
66721;SDS011;53633;49.932;10.884;2023-10-13T11:17:49;10.85;;;4.15;;
66721;SDS011;53633;49.932;10.884;2023-10-13T11:20:16;14.30;;;4.60;;
66721;SDS011;53633;49.932;10.884;2023-10-13T11:22:47;8.88;;;3.55;;
66721;SDS011;53633;49.932;10.884;2023-10-13T11:25:20;13.32;;;3.95;;
66721;SDS011;53633;49.932;10.884;2023-10-13T11:27:51;8.88;;;3.95;;
66721;SDS011;53633;49.932;10.884;2023-10-13T11:30:18;8.82;;;4.15;;
66721;SDS011;53633;49.932;10.884;2023-10-13T11:32:56;12.23;;;4.23;;
66721;SDS011;53633;49.932;10.884;2023-10-13T11:35:23;11.75;;;4.10;;
66721;SDS011;53633;49.932;10.884;2023-10-13T11:37:50;13.50;;;4.10;;
66721;SDS011;53633;49.932;10.884;2023-10-13T11:40:17;12.05;;;4.07;;
66721;SDS011;53633;49.932;10.884;2023-10-13T11:42:44;11.07;;;3.90;;
66721;SDS011;53633;49.932;10.884;2023-10-13T11:45:10;10.47;;;3.63;;
66721;SDS011;53633;49.932;10.884;2023-10-13T11:47:37;11.43;;;3.90;;
66721;SDS011;53633;49.932;10.884;2023-10-13T11:50:06;11.82;;;4.10;;
66721;SDS011;53633;49.932;10.884;2023-10-13T11:52:33;12.00;;;3.60;;
66721;SDS011;53633;49.932;10.884;2023-10-13T11:54:59;10.40;;;3.85;;
66721;SDS011;53633;49.932;10.884;2023-10-13T11:57:26;9.97;;;3.50;;
66721;SDS011;53633;49.932;10.884;2023-10-13T11:59:53;15.20;;;3.88;;
66721;SDS011;53633;49.932;10.884;2023-10-13T12:02:20;8.30;;;3.83;;
66721;SDS011;53633;49.932;10.884;2023-10-13T12:04:47;8.70;;;4.25;;
66721;SDS011;53633;49.932;10.884;2023-10-13T12:07:15;9.07;;;3.85;;
66721;SDS011;53633;49.932;10.884;2023-10-13T12:09:42;9.30;;;4.30;;
66721;SDS011;53633;49.932;10.884;2023-10-13T12:12:12;8.95;;;3.80;;
66721;SDS011;53633;49.932;10.884;2023-10-13T12:14:39;8.77;;;4.07;;
66721;SDS011;53633;49.932;10.884;2023-10-13T12:17:06;7.88;;;3.50;;
66721;SDS011;53633;49.932;10.884;2023-10-13T12:19:33;10.32;;;4.35;;
66721;SDS011;53633;49.932;10.884;2023-10-13T12:21:59;10.17;;;3.90;;
66721;SDS011;53633;49.932;10.884;2023-10-13T12:24:28;7.68;;;3.55;;
66721;SDS011;53633;49.932;10.884;2023-10-13T12:26:54;10.30;;;3.90;;
66721;SDS011;53633;49.932;10.884;2023-10-13T12:29:22;9.50;;;3.50;;
66721;SDS011;53633;49.932;10.884;2023-10-13T12:31:49;8.73;;;3.40;;
66721;SDS011;53633;49.932;10.884;2023-10-13T12:34:16;10.43;;;3.30;;
66721;SDS011;53633;49.932;10.884;2023-10-13T12:36:43;9.15;;;3.22;;
66721;SDS011;53633;49.932;10.884;2023-10-13T12:39:09;9.15;;;3.72;;
66721;SDS011;53633;49.932;10.884;2023-10-13T12:41:37;9.85;;;3.80;;
66721;SDS011;53633;49.932;10.884;2023-10-13T12:44:05;7.72;;;3.50;;
66721;SDS011;53633;49.932;10.884;2023-10-13T12:46:32;10.40;;;4.00;;
66721;SDS011;53633;49.932;10.884;2023-10-13T12:48:59;9.07;;;3.65;;
66721;SDS011;53633;49.932;10.884;2023-10-13T12:51:26;13.10;;;3.65;;
66721;SDS011;53633;49.932;10.884;2023-10-13T12:53:53;6.70;;;3.33;;
66721;SDS011;53633;49.932;10.884;2023-10-13T12:56:20;8.07;;;3.47;;
66721;SDS011;53633;49.932;10.884;2023-10-13T12:58:49;9.07;;;3.60;;
66721;SDS011;53633;49.932;10.884;2023-10-13T13:01:16;8.95;;;3.50;;
66721;SDS011;53633;49.932;10.884;2023-10-13T13:03:42;9.38;;;3.38;;
66721;SDS011;53633;49.932;10.884;2023-10-13T13:06:14;10.35;;;3.63;;
66721;SDS011;53633;49.932;10.884;2023-10-13T13:08:42;8.43;;;3.78;;
66721;SDS011;53633;49.932;10.884;2023-10-13T13:11:08;7.77;;;3.20;;
66721;SDS011;53633;49.932;10.884;2023-10-13T13:13:35;8.57;;;3.17;;
66721;SDS011;53633;49.932;10.884;2023-10-13T13:16:03;9.48;;;3.70;;
66721;SDS011;53633;49.932;10.884;2023-10-13T13:18:30;8.20;;;3.17;;
66721;SDS011;53633;49.932;10.884;2023-10-13T13:20:57;7.88;;;3.38;;
66721;SDS011;53633;49.932;10.884;2023-10-13T13:23:24;10.67;;;3.37;;
66721;SDS011;53633;49.932;10.884;2023-10-13T13:25:50;9.40;;;3.20;;
66721;SDS011;53633;49.932;10.884;2023-10-13T13:28:17;9.90;;;4.10;;
66721;SDS011;53633;49.932;10.884;2023-10-13T13:30:44;8.15;;;3.60;;
66721;SDS011;53633;49.932;10.884;2023-10-13T13:33:12;8.20;;;3.38;;
66721;SDS011;53633;49.932;10.884;2023-10-13T13:35:39;7.60;;;3.13;;
66721;SDS011;53633;49.932;10.884;2023-10-13T13:38:06;7.35;;;3.60;;
66721;SDS011;53633;49.932;10.884;2023-10-13T13:40:32;8.40;;;3.00;;
66721;SDS011;53633;49.932;10.884;2023-10-13T13:42:59;8.45;;;3.50;;
66721;SDS011;53633;49.932;10.884;2023-10-13T13:45:26;9.35;;;3.08;;
66721;SDS011;53633;49.932;10.884;2023-10-13T13:47:52;7.23;;;3.07;;
66721;SDS011;53633;49.932;10.884;2023-10-13T13:50:22;10.23;;;3.40;;
66721;SDS011;53633;49.932;10.884;2023-10-13T13:52:50;9.00;;;3.85;;
66721;SDS011;53633;49.932;10.884;2023-10-13T13:55:18;35.65;;;6.05;;
66721;SDS011;53633;49.932;10.884;2023-10-13T13:57:45;20.08;;;5.00;;
66721;SDS011;53633;49.932;10.884;2023-10-13T14:00:12;16.20;;;4.40;;
66721;SDS011;53633;49.932;10.884;2023-10-13T14:02:42;14.05;;;3.80;;
66721;SDS011;53633;49.932;10.884;2023-10-13T14:05:09;13.20;;;3.63;;
66721;SDS011;53633;49.932;10.884;2023-10-13T14:07:37;10.23;;;3.70;;
66721;SDS011;53633;49.932;10.884;2023-10-13T14:10:05;13.15;;;4.13;;
66721;SDS011;53633;49.932;10.884;2023-10-13T14:12:32;11.57;;;3.40;;
66721;SDS011;53633;49.932;10.884;2023-10-13T14:14:58;6.97;;;3.40;;
66721;SDS011;53633;49.932;10.884;2023-10-13T14:17:25;13.63;;;3.92;;
66721;SDS011;53633;49.932;10.884;2023-10-13T14:19:52;11.27;;;4.20;;
66721;SDS011;53633;49.932;10.884;2023-10-13T14:22:19;8.55;;;3.83;;
66721;SDS011;53633;49.932;10.884;2023-10-13T14:24:47;11.10;;;3.47;;